sensor_id;sensor_type;location;lat;lon;timestamp;P1;durP1;ratioP1;P2;durP2;ratioP2
67717;SDS011;54511;47.532;19.180;2024-01-15T00:00:18;2.37;;;1.85;;
67717;SDS011;54511;47.532;19.180;2024-01-15T00:02:46;2.70;;;1.90;;
67717;SDS011;54511;47.532;19.180;2024-01-15T00:05:15;25.55;;;3.60;;
67717;SDS011;54511;47.532;19.180;2024-01-15T00:07:42;3.78;;;2.58;;
67717;SDS011;54511;47.532;19.180;2024-01-15T00:10:10;2.15;;;1.98;;
67717;SDS011;54511;47.532;19.180;2024-01-15T00:12:36;4.37;;;2.62;;
67717;SDS011;54511;47.532;19.180;2024-01-15T00:15:06;8.65;;;2.53;;
67717;SDS011;54511;47.532;19.180;2024-01-15T00:17:33;6.78;;;3.47;;
67717;SDS011;54511;47.532;19.180;2024-01-15T00:20:04;5.45;;;3.08;;
67717;SDS011;54511;47.532;19.180;2024-01-15T00:22:32;4.82;;;2.72;;
67717;SDS011;54511;47.532;19.180;2024-01-15T00:25:00;3.83;;;2.72;;
67717;SDS011;54511;47.532;19.180;2024-01-15T00:27:27;1.98;;;1.83;;
67717;SDS011;54511;47.532;19.180;2024-01-15T00:29:58;4.95;;;3.35;;
67717;SDS011;54511;47.532;19.180;2024-01-15T00:32:27;5.28;;;3.05;;
67717;SDS011;54511;47.532;19.180;2024-01-15T00:34:53;5.50;;;3.05;;
67717;SDS011;54511;47.532;19.180;2024-01-15T00:37:24;7.47;;;1.92;;
67717;SDS011;54511;47.532;19.180;2024-01-15T00:39:52;4.00;;;3.08;;
67717;SDS011;54511;47.532;19.180;2024-01-15T00:42:18;6.60;;;2.47;;
67717;SDS011;54511;47.532;19.180;2024-01-15T00:44:45;10.75;;;3.25;;
67717;SDS011;54511;47.532;19.180;2024-01-15T00:47:13;12.48;;;3.83;;
67717;SDS011;54511;47.532;19.180;2024-01-15T00:49:41;3.30;;;2.53;;
67717;SDS011;54511;47.532;19.180;2024-01-15T00:52:08;4.85;;;3.20;;
67717;SDS011;54511;47.532;19.180;2024-01-15T00:54:35;2.72;;;2.08;;
67717;SDS011;54511;47.532;19.180;2024-01-15T00:57:03;5.37;;;1.55;;
67717;SDS011;54511;47.532;19.180;2024-01-15T00:59:33;3.50;;;3.20;;
67717;SDS011;54511;47.532;19.180;2024-01-15T01:02:15;1.83;;;1.67;;
67717;SDS011;54511;47.532;19.180;2024-01-15T01:04:44;12.90;;;3.60;;
67717;SDS011;54511;47.532;19.180;2024-01-15T01:07:12;8.93;;;3.75;;
67717;SDS011;54511;47.532;19.180;2024-01-15T01:09:40;6.65;;;3.90;;
67717;SDS011;54511;47.532;19.180;2024-01-15T01:12:09;3.05;;;1.60;;
67717;SDS011;54511;47.532;19.180;2024-01-15T01:14:52;6.00;;;2.80;;
67717;SDS011;54511;47.532;19.180;2024-01-15T01:17:19;6.87;;;4.20;;
67717;SDS011;54511;47.532;19.180;2024-01-15T01:19:47;5.30;;;2.03;;
67717;SDS011;54511;47.532;19.180;2024-01-15T01:22:14;3.83;;;2.40;;
67717;SDS011;54511;47.532;19.180;2024-01-15T01:24:41;1.80;;;1.15;;
67717;SDS011;54511;47.532;19.180;2024-01-15T01:27:08;3.78;;;3.47;;
67717;SDS011;54511;47.532;19.180;2024-01-15T01:29:36;4.93;;;2.78;;
67717;SDS011;54511;47.532;19.180;2024-01-15T01:32:03;5.10;;;1.90;;
67717;SDS011;54511;47.532;19.180;2024-01-15T01:34:32;10.18;;;4.30;;
67717;SDS011;54511;47.532;19.180;2024-01-15T01:37:02;4.57;;;3.08;;
67717;SDS011;54511;47.532;19.180;2024-01-15T01:39:45;4.28;;;3.10;;
67717;SDS011;54511;47.532;19.180;2024-01-15T01:42:15;3.35;;;2.17;;
67717;SDS011;54511;47.532;19.180;2024-01-15T01:44:44;5.15;;;3.05;;
67717;SDS011;54511;47.532;19.180;2024-01-15T01:47:14;6.10;;;2.95;;
67717;SDS011;54511;47.532;19.180;2024-01-15T01:49:43;5.68;;;2.72;;
67717;SDS011;54511;47.532;19.180;2024-01-15T01:52:32;3.62;;;2.60;;
67717;SDS011;54511;47.532;19.180;2024-01-15T01:54:59;4.82;;;4.28;;
67717;SDS011;54511;47.532;19.180;2024-01-15T01:57:26;3.65;;;2.28;;
67717;SDS011;54511;47.532;19.180;2024-01-15T01:59:53;2.33;;;1.70;;
67717;SDS011;54511;47.532;19.180;2024-01-15T02:02:21;3.37;;;2.20;;
67717;SDS011;54511;47.532;19.180;2024-01-15T02:05:18;2.20;;;1.60;;
67717;SDS011;54511;47.532;19.180;2024-01-15T02:07:48;2.53;;;1.83;;
67717;SDS011;54511;47.532;19.180;2024-01-15T02:10:15;2.40;;;2.08;;
67717;SDS011;54511;47.532;19.180;2024-01-15T02:13:39;2.42;;;1.83;;
67717;SDS011;54511;47.532;19.180;2024-01-15T02:16:06;3.25;;;2.75;;
67717;SDS011;54511;47.532;19.180;2024-01-15T02:18:53;4.75;;;2.10;;
67717;SDS011;54511;47.532;19.180;2024-01-15T02:21:20;2.22;;;2.03;;
67717;SDS011;54511;47.532;19.180;2024-01-15T02:23:48;3.83;;;3.33;;
67717;SDS011;54511;47.532;19.180;2024-01-15T02:26:35;2.85;;;1.85;;
67717;SDS011;54511;47.532;19.180;2024-01-15T02:29:03;2.37;;;1.87;;
67717;SDS011;54511;47.532;19.180;2024-01-15T02:31:38;2.97;;;2.58;;
67717;SDS011;54511;47.532;19.180;2024-01-15T02:34:06;2.47;;;2.28;;
67717;SDS011;54511;47.532;19.180;2024-01-15T02:36:32;2.05;;;1.92;;
67717;SDS011;54511;47.532;19.180;2024-01-15T02:39:00;8.65;;;4.00;;
67717;SDS011;54511;47.532;19.180;2024-01-15T02:41:27;4.80;;;2.67;;
67717;SDS011;54511;47.532;19.180;2024-01-15T02:44:04;3.25;;;2.03;;
67717;SDS011;54511;47.532;19.180;2024-01-15T02:46:49;1.00;;;1.00;;
67717;SDS011;54511;47.532;19.180;2024-01-15T02:49:15;4.30;;;2.42;;
67717;SDS011;54511;47.532;19.180;2024-01-15T02:52:00;4.65;;;3.03;;
67717;SDS011;54511;47.532;19.180;2024-01-15T02:54:29;6.85;;;4.00;;
67717;SDS011;54511;47.532;19.180;2024-01-15T02:56:56;6.72;;;2.97;;
67717;SDS011;54511;47.532;19.180;2024-01-15T02:59:23;6.60;;;3.25;;
67717;SDS011;54511;47.532;19.180;2024-01-15T03:01:51;7.32;;;3.97;;
67717;SDS011;54511;47.532;19.180;2024-01-15T03:04:18;2.45;;;1.80;;
67717;SDS011;54511;47.532;19.180;2024-01-15T03:06:45;4.90;;;3.22;;
67717;SDS011;54511;47.532;19.180;2024-01-15T03:09:20;2.45;;;2.25;;
67717;SDS011;54511;47.532;19.180;2024-01-15T03:11:49;3.17;;;1.80;;
67717;SDS011;54511;47.532;19.180;2024-01-15T03:14:16;8.27;;;3.92;;
67717;SDS011;54511;47.532;19.180;2024-01-15T03:16:43;5.00;;;2.97;;
67717;SDS011;54511;47.532;19.180;2024-01-15T03:19:29;2.28;;;2.08;;
67717;SDS011;54511;47.532;19.180;2024-01-15T03:22:16;1.60;;;1.50;;
67717;SDS011;54511;47.532;19.180;2024-01-15T03:24:44;3.62;;;2.05;;
67717;SDS011;54511;47.532;19.180;2024-01-15T03:27:12;1.95;;;1.55;;
67717;SDS011;54511;47.532;19.180;2024-01-15T03:29:39;5.15;;;3.92;;
67717;SDS011;54511;47.532;19.180;2024-01-15T03:32:09;8.05;;;3.10;;
67717;SDS011;54511;47.532;19.180;2024-01-15T03:34:36;1.92;;;1.83;;
67717;SDS011;54511;47.532;19.180;2024-01-15T03:37:05;2.37;;;2.17;;
67717;SDS011;54511;47.532;19.180;2024-01-15T03:39:32;4.00;;;2.90;;
67717;SDS011;54511;47.532;19.180;2024-01-15T03:41:59;1.58;;;1.48;;
67717;SDS011;54511;47.532;19.180;2024-01-15T03:44:30;1.33;;;1.23;;
67717;SDS011;54511;47.532;19.180;2024-01-15T03:46:58;2.65;;;2.28;;
67717;SDS011;54511;47.532;19.180;2024-01-15T03:49:24;4.37;;;2.30;;
67717;SDS011;54511;47.532;19.180;2024-01-15T03:51:52;4.87;;;3.05;;
67717;SDS011;54511;47.532;19.180;2024-01-15T03:54:18;5.55;;;4.62;;
67717;SDS011;54511;47.532;19.180;2024-01-15T03:56:47;8.90;;;2.75;;
67717;SDS011;54511;47.532;19.180;2024-01-15T03:59:15;5.20;;;3.78;;
67717;SDS011;54511;47.532;19.180;2024-01-15T04:01:49;5.43;;;2.72;;
67717;SDS011;54511;47.532;19.180;2024-01-15T04:04:18;8.98;;;1.85;;
67717;SDS011;54511;47.532;19.180;2024-01-15T04:06:54;3.87;;;2.75;;
67717;SDS011;54511;47.532;19.180;2024-01-15T04:09:22;2.53;;;1.90;;
67717;SDS011;54511;47.532;19.180;2024-01-15T04:11:49;6.85;;;3.62;;
67717;SDS011;54511;47.532;19.180;2024-01-15T04:14:19;11.55;;;2.53;;
67717;SDS011;54511;47.532;19.180;2024-01-15T04:17:08;5.50;;;3.70;;
67717;SDS011;54511;47.532;19.180;2024-01-15T04:19:35;4.55;;;3.03;;
67717;SDS011;54511;47.532;19.180;2024-01-15T04:22:18;1.73;;;1.62;;
67717;SDS011;54511;47.532;19.180;2024-01-15T04:24:46;4.07;;;3.62;;
67717;SDS011;54511;47.532;19.180;2024-01-15T04:27:53;4.15;;;2.37;;
67717;SDS011;54511;47.532;19.180;2024-01-15T04:30:40;10.85;;;2.08;;
67717;SDS011;54511;47.532;19.180;2024-01-15T04:33:08;3.45;;;2.67;;
67717;SDS011;54511;47.532;19.180;2024-01-15T04:35:55;1.27;;;1.17;;
67717;SDS011;54511;47.532;19.180;2024-01-15T04:38:25;4.43;;;3.35;;
67717;SDS011;54511;47.532;19.180;2024-01-15T04:41:01;2.17;;;1.40;;
67717;SDS011;54511;47.532;19.180;2024-01-15T04:44:03;4.20;;;1.98;;
67717;SDS011;54511;47.532;19.180;2024-01-15T04:46:43;5.07;;;2.42;;
67717;SDS011;54511;47.532;19.180;2024-01-15T04:49:12;5.37;;;2.87;;
67717;SDS011;54511;47.532;19.180;2024-01-15T04:51:40;2.55;;;2.37;;
67717;SDS011;54511;47.532;19.180;2024-01-15T04:54:43;2.72;;;2.47;;
67717;SDS011;54511;47.532;19.180;2024-01-15T04:57:30;5.97;;;3.42;;
67717;SDS011;54511;47.532;19.180;2024-01-15T05:00:36;2.05;;;1.83;;
67717;SDS011;54511;47.532;19.180;2024-01-15T05:03:05;2.95;;;1.58;;
67717;SDS011;54511;47.532;19.180;2024-01-15T05:05:42;2.65;;;1.50;;
67717;SDS011;54511;47.532;19.180;2024-01-15T05:08:28;4.32;;;3.37;;
67717;SDS011;54511;47.532;19.180;2024-01-15T05:10:55;2.08;;;1.85;;
67717;SDS011;54511;47.532;19.180;2024-01-15T05:13:24;1.25;;;1.25;;
67717;SDS011;54511;47.532;19.180;2024-01-15T05:15:51;3.78;;;2.37;;
67717;SDS011;54511;47.532;19.180;2024-01-15T05:18:18;2.03;;;1.83;;
67717;SDS011;54511;47.532;19.180;2024-01-15T05:21:03;7.62;;;3.12;;
67717;SDS011;54511;47.532;19.180;2024-01-15T05:23:31;4.62;;;1.30;;
67717;SDS011;54511;47.532;19.180;2024-01-15T05:26:18;1.87;;;1.77;;
67717;SDS011;54511;47.532;19.180;2024-01-15T05:29:24;2.47;;;2.15;;
67717;SDS011;54511;47.532;19.180;2024-01-15T05:31:53;3.55;;;3.15;;
67717;SDS011;54511;47.532;19.180;2024-01-15T05:34:21;4.37;;;1.62;;
67717;SDS011;54511;47.532;19.180;2024-01-15T05:36:49;2.17;;;1.87;;
67717;SDS011;54511;47.532;19.180;2024-01-15T05:39:19;4.70;;;2.25;;
67717;SDS011;54511;47.532;19.180;2024-01-15T05:41:47;0.90;;;0.90;;
67717;SDS011;54511;47.532;19.180;2024-01-15T05:44:14;8.75;;;2.80;;
67717;SDS011;54511;47.532;19.180;2024-01-15T05:47:04;2.78;;;2.58;;
67717;SDS011;54511;47.532;19.180;2024-01-15T05:49:51;2.67;;;1.95;;
67717;SDS011;54511;47.532;19.180;2024-01-15T05:52:21;4.40;;;3.20;;
67717;SDS011;54511;47.532;19.180;2024-01-15T05:54:48;1.05;;;0.95;;
67717;SDS011;54511;47.532;19.180;2024-01-15T05:57:32;5.55;;;2.80;;
67717;SDS011;54511;47.532;19.180;2024-01-15T05:59:59;3.75;;;2.62;;
67717;SDS011;54511;47.532;19.180;2024-01-15T06:02:28;8.90;;;4.35;;
67717;SDS011;54511;47.532;19.180;2024-01-15T06:04:55;2.45;;;1.58;;
67717;SDS011;54511;47.532;19.180;2024-01-15T06:07:23;5.45;;;3.33;;
67717;SDS011;54511;47.532;19.180;2024-01-15T06:09:53;6.65;;;3.90;;
67717;SDS011;54511;47.532;19.180;2024-01-15T06:12:22;3.65;;;1.30;;
67717;SDS011;54511;47.532;19.180;2024-01-15T06:14:49;3.58;;;2.65;;
67717;SDS011;54511;47.532;19.180;2024-01-15T06:17:17;5.18;;;1.75;;
67717;SDS011;54511;47.532;19.180;2024-01-15T06:20:06;5.45;;;3.78;;
67717;SDS011;54511;47.532;19.180;2024-01-15T06:22:37;4.03;;;3.30;;
67717;SDS011;54511;47.532;19.180;2024-01-15T06:25:23;8.27;;;5.10;;
67717;SDS011;54511;47.532;19.180;2024-01-15T06:28:26;2.12;;;1.80;;
67717;SDS011;54511;47.532;19.180;2024-01-15T06:31:12;6.35;;;3.20;;
67717;SDS011;54511;47.532;19.180;2024-01-15T06:33:59;4.95;;;4.03;;
67717;SDS011;54511;47.532;19.180;2024-01-15T06:36:53;1.70;;;1.60;;
67717;SDS011;54511;47.532;19.180;2024-01-15T06:39:49;3.05;;;2.72;;
67717;SDS011;54511;47.532;19.180;2024-01-15T06:42:36;2.22;;;2.05;;
67717;SDS011;54511;47.532;19.180;2024-01-15T06:48:25;2.05;;;1.62;;
67717;SDS011;54511;47.532;19.180;2024-01-15T06:51:12;2.97;;;2.53;;
67717;SDS011;54511;47.532;19.180;2024-01-15T06:54:38;1.62;;;1.52;;
67717;SDS011;54511;47.532;19.180;2024-01-15T06:57:47;4.70;;;3.83;;
67717;SDS011;54511;47.532;19.180;2024-01-15T07:00:35;5.20;;;4.72;;
67717;SDS011;54511;47.532;19.180;2024-01-15T07:03:24;8.15;;;2.00;;
67717;SDS011;54511;47.532;19.180;2024-01-15T07:05:53;2.90;;;2.65;;
67717;SDS011;54511;47.532;19.180;2024-01-15T07:08:36;3.97;;;2.55;;
67717;SDS011;54511;47.532;19.180;2024-01-15T07:11:20;4.15;;;3.78;;
67717;SDS011;54511;47.532;19.180;2024-01-15T07:14:05;3.25;;;2.20;;
67717;SDS011;54511;47.532;19.180;2024-01-15T07:16:32;5.43;;;3.55;;
67717;SDS011;54511;47.532;19.180;2024-01-15T07:19:15;8.35;;;3.45;;
67717;SDS011;54511;47.532;19.180;2024-01-15T07:22:11;2.28;;;1.95;;
67717;SDS011;54511;47.532;19.180;2024-01-15T07:24:42;3.87;;;2.25;;
67717;SDS011;54511;47.532;19.180;2024-01-15T07:27:09;4.40;;;3.95;;
67717;SDS011;54511;47.532;19.180;2024-01-15T07:29:53;3.05;;;2.12;;
67717;SDS011;54511;47.532;19.180;2024-01-15T07:32:35;3.20;;;2.60;;
67717;SDS011;54511;47.532;19.180;2024-01-15T07:35:02;4.37;;;3.87;;
67717;SDS011;54511;47.532;19.180;2024-01-15T07:37:31;2.42;;;2.22;;
67717;SDS011;54511;47.532;19.180;2024-01-15T07:40:38;4.40;;;3.17;;
67717;SDS011;54511;47.532;19.180;2024-01-15T07:44:05;3.53;;;3.22;;
67717;SDS011;54511;47.532;19.180;2024-01-15T07:47:14;6.57;;;5.10;;
67717;SDS011;54511;47.532;19.180;2024-01-15T07:50:20;4.35;;;3.90;;
67717;SDS011;54511;47.532;19.180;2024-01-15T07:53:30;3.05;;;2.25;;
67717;SDS011;54511;47.532;19.180;2024-01-15T07:56:58;5.35;;;2.83;;
67717;SDS011;54511;47.532;19.180;2024-01-15T08:00:25;6.72;;;3.65;;
67717;SDS011;54511;47.532;19.180;2024-01-15T08:03:53;4.78;;;3.00;;
67717;SDS011;54511;47.532;19.180;2024-01-15T08:06:27;4.47;;;2.75;;
67717;SDS011;54511;47.532;19.180;2024-01-15T08:08:53;5.87;;;5.10;;
67717;SDS011;54511;47.532;19.180;2024-01-15T08:12:02;7.45;;;6.15;;
67717;SDS011;54511;47.532;19.180;2024-01-15T08:15:29;4.22;;;3.90;;
67717;SDS011;54511;47.532;19.180;2024-01-15T08:18:36;4.00;;;3.28;;
67717;SDS011;54511;47.532;19.180;2024-01-15T08:21:24;5.60;;;4.35;;
67717;SDS011;54511;47.532;19.180;2024-01-15T08:24:31;4.45;;;3.90;;
67717;SDS011;54511;47.532;19.180;2024-01-15T08:27:58;14.15;;;7.80;;
67717;SDS011;54511;47.532;19.180;2024-01-15T08:31:05;5.97;;;4.32;;
67717;SDS011;54511;47.532;19.180;2024-01-15T08:34:11;3.97;;;3.15;;
67717;SDS011;54511;47.532;19.180;2024-01-15T08:37:20;0.95;;;0.90;;
67717;SDS011;54511;47.532;19.180;2024-01-15T08:40:47;1.15;;;1.05;;
67717;SDS011;54511;47.532;19.180;2024-01-15T08:44:14;4.05;;;1.52;;
67717;SDS011;54511;47.532;19.180;2024-01-15T08:47:20;2.28;;;1.85;;
67717;SDS011;54511;47.532;19.180;2024-01-15T08:50:27;2.25;;;1.12;;
67717;SDS011;54511;47.532;19.180;2024-01-15T08:53:39;2.55;;;0.93;;
67717;SDS011;54511;47.532;19.180;2024-01-15T08:56:26;1.20;;;1.15;;
67717;SDS011;54511;47.532;19.180;2024-01-15T08:59:33;0.70;;;0.70;;
67717;SDS011;54511;47.532;19.180;2024-01-15T09:02:16;3.65;;;1.77;;
67717;SDS011;54511;47.532;19.180;2024-01-15T09:05:03;3.08;;;2.87;;
67717;SDS011;54511;47.532;19.180;2024-01-15T09:07:50;1.55;;;1.45;;
67717;SDS011;54511;47.532;19.180;2024-01-15T09:10:19;1.67;;;1.25;;
67717;SDS011;54511;47.532;19.180;2024-01-15T09:13:06;1.35;;;1.25;;
67717;SDS011;54511;47.532;19.180;2024-01-15T09:16:33;4.90;;;1.08;;
67717;SDS011;54511;47.532;19.180;2024-01-15T09:19:39;0.75;;;0.62;;
67717;SDS011;54511;47.532;19.180;2024-01-15T09:22:22;1.42;;;1.33;;
67717;SDS011;54511;47.532;19.180;2024-01-15T09:25:09;2.78;;;1.92;;
67717;SDS011;54511;47.532;19.180;2024-01-15T09:27:59;5.93;;;1.75;;
67717;SDS011;54511;47.532;19.180;2024-01-15T09:31:06;4.97;;;2.95;;
67717;SDS011;54511;47.532;19.180;2024-01-15T09:34:13;3.87;;;2.45;;
67717;SDS011;54511;47.532;19.180;2024-01-15T09:36:46;1.70;;;1.60;;
67717;SDS011;54511;47.532;19.180;2024-01-15T09:39:51;1.20;;;1.08;;
67717;SDS011;54511;47.532;19.180;2024-01-15T09:42:59;3.25;;;1.70;;
67717;SDS011;54511;47.532;19.180;2024-01-15T09:45:26;0.20;;;0.20;;
67717;SDS011;54511;47.532;19.180;2024-01-15T09:48:33;1.67;;;1.17;;
67717;SDS011;54511;47.532;19.180;2024-01-15T09:54:21;6.65;;;1.10;;
67717;SDS011;54511;47.532;19.180;2024-01-15T09:56:49;1.58;;;1.48;;
67717;SDS011;54511;47.532;19.180;2024-01-15T09:59:18;2.47;;;0.90;;
67717;SDS011;54511;47.532;19.180;2024-01-15T10:02:01;7.47;;;1.83;;
67717;SDS011;54511;47.532;19.180;2024-01-15T10:04:44;0.50;;;0.50;;
67717;SDS011;54511;47.532;19.180;2024-01-15T10:07:51;0.90;;;0.90;;
67717;SDS011;54511;47.532;19.180;2024-01-15T10:10:27;2.10;;;1.67;;
67717;SDS011;54511;47.532;19.180;2024-01-15T10:12:56;1.52;;;1.42;;
67717;SDS011;54511;47.532;19.180;2024-01-15T10:15:26;1.15;;;1.05;;
67717;SDS011;54511;47.532;19.180;2024-01-15T10:18:03;2.70;;;0.85;;
67717;SDS011;54511;47.532;19.180;2024-01-15T10:20:31;4.82;;;1.62;;
67717;SDS011;54511;47.532;19.180;2024-01-15T10:22:59;0.77;;;0.77;;
67717;SDS011;54511;47.532;19.180;2024-01-15T10:25:27;4.65;;;1.15;;
67717;SDS011;54511;47.532;19.180;2024-01-15T10:27:58;2.22;;;0.70;;
67717;SDS011;54511;47.532;19.180;2024-01-15T10:30:27;1.62;;;1.15;;
67717;SDS011;54511;47.532;19.180;2024-01-15T10:33:10;0.32;;;0.30;;
67717;SDS011;54511;47.532;19.180;2024-01-15T10:35:53;2.95;;;1.92;;
67717;SDS011;54511;47.532;19.180;2024-01-15T10:38:37;1.25;;;0.77;;
67717;SDS011;54511;47.532;19.180;2024-01-15T10:41:23;0.73;;;0.73;;
67717;SDS011;54511;47.532;19.180;2024-01-15T10:43:49;0.68;;;0.50;;
67717;SDS011;54511;47.532;19.180;2024-01-15T10:46:38;0.60;;;0.45;;
67717;SDS011;54511;47.532;19.180;2024-01-15T10:49:44;0.68;;;0.68;;
67717;SDS011;54511;47.532;19.180;2024-01-15T10:52:33;2.30;;;1.92;;
67717;SDS011;54511;47.532;19.180;2024-01-15T10:55:16;2.85;;;0.90;;
67717;SDS011;54511;47.532;19.180;2024-01-15T10:57:51;1.67;;;1.37;;
67717;SDS011;54511;47.532;19.180;2024-01-15T11:00:29;3.83;;;2.78;;
67717;SDS011;54511;47.532;19.180;2024-01-15T11:03:17;0.80;;;0.80;;
67717;SDS011;54511;47.532;19.180;2024-01-15T11:06:10;2.17;;;1.15;;
67717;SDS011;54511;47.532;19.180;2024-01-15T11:09:11;1.25;;;1.10;;
67717;SDS011;54511;47.532;19.180;2024-01-15T11:12:06;1.55;;;1.33;;
67717;SDS011;54511;47.532;19.180;2024-01-15T11:15:00;1.23;;;0.95;;
67717;SDS011;54511;47.532;19.180;2024-01-15T11:20:39;1.30;;;1.20;;
67717;SDS011;54511;47.532;19.180;2024-01-15T11:23:45;0.93;;;0.68;;
67717;SDS011;54511;47.532;19.180;2024-01-15T11:26:34;1.45;;;0.95;;
67717;SDS011;54511;47.532;19.180;2024-01-15T11:29:44;2.67;;;0.95;;
67717;SDS011;54511;47.532;19.180;2024-01-15T11:32:34;0.30;;;0.25;;
67717;SDS011;54511;47.532;19.180;2024-01-15T11:35:20;0.62;;;0.25;;
67717;SDS011;54511;47.532;19.180;2024-01-15T11:37:57;4.15;;;0.50;;
67717;SDS011;54511;47.532;19.180;2024-01-15T11:40:38;0.30;;;0.30;;
67717;SDS011;54511;47.532;19.180;2024-01-15T11:43:27;0.45;;;0.15;;
67717;SDS011;54511;47.532;19.180;2024-01-15T11:46:29;0.50;;;0.32;;
67717;SDS011;54511;47.532;19.180;2024-01-15T11:52:49;0.68;;;0.62;;
67717;SDS011;54511;47.532;19.180;2024-01-15T11:56:06;1.90;;;0.25;;
67717;SDS011;54511;47.532;19.180;2024-01-15T11:58:41;1.02;;;0.93;;
67717;SDS011;54511;47.532;19.180;2024-01-15T12:01:10;0.10;;;0.10;;
67717;SDS011;54511;47.532;19.180;2024-01-15T12:03:38;0.32;;;0.17;;
67717;SDS011;54511;47.532;19.180;2024-01-15T12:06:06;1.45;;;0.65;;
67717;SDS011;54511;47.532;19.180;2024-01-15T12:08:41;3.45;;;1.23;;
67717;SDS011;54511;47.532;19.180;2024-01-15T12:11:10;0.85;;;0.65;;
67717;SDS011;54511;47.532;19.180;2024-01-15T12:13:59;0.90;;;0.90;;
67717;SDS011;54511;47.532;19.180;2024-01-15T12:17:06;0.80;;;0.73;;
67717;SDS011;54511;47.532;19.180;2024-01-15T12:19:53;0.55;;;0.55;;
67717;SDS011;54511;47.532;19.180;2024-01-15T12:22:28;0.20;;;0.20;;
67717;SDS011;54511;47.532;19.180;2024-01-15T12:25:13;2.15;;;0.60;;
67717;SDS011;54511;47.532;19.180;2024-01-15T12:27:48;0.55;;;0.55;;
67717;SDS011;54511;47.532;19.180;2024-01-15T12:30:15;1.05;;;0.15;;
67717;SDS011;54511;47.532;19.180;2024-01-15T12:36:13;1.48;;;1.35;;
67717;SDS011;54511;47.532;19.180;2024-01-15T12:39:00;0.65;;;0.20;;
67717;SDS011;54511;47.532;19.180;2024-01-15T12:41:49;0.75;;;0.60;;
67717;SDS011;54511;47.532;19.180;2024-01-15T12:47:53;1.27;;;0.47;;
67717;SDS011;54511;47.532;19.180;2024-01-15T12:50:23;0.80;;;0.65;;
67717;SDS011;54511;47.532;19.180;2024-01-15T12:55:59;0.17;;;0.17;;
67717;SDS011;54511;47.532;19.180;2024-01-15T12:58:28;0.20;;;0.20;;
67717;SDS011;54511;47.532;19.180;2024-01-15T13:01:35;1.10;;;1.05;;
67717;SDS011;54511;47.532;19.180;2024-01-15T13:04:05;0.50;;;0.50;;
67717;SDS011;54511;47.532;19.180;2024-01-15T13:06:41;1.65;;;1.17;;
67717;SDS011;54511;47.532;19.180;2024-01-15T13:09:31;1.15;;;1.05;;
67717;SDS011;54511;47.532;19.180;2024-01-15T13:12:08;0.20;;;0.20;;
67717;SDS011;54511;47.532;19.180;2024-01-15T13:15:16;0.32;;;0.32;;
67717;SDS011;54511;47.532;19.180;2024-01-15T13:18:23;0.45;;;0.45;;
67717;SDS011;54511;47.532;19.180;2024-01-15T13:21:04;1.67;;;0.37;;
67717;SDS011;54511;47.532;19.180;2024-01-15T13:23:31;5.28;;;0.70;;
67717;SDS011;54511;47.532;19.180;2024-01-15T13:26:13;3.17;;;1.45;;
67717;SDS011;54511;47.532;19.180;2024-01-15T13:28:40;0.10;;;0.10;;
67717;SDS011;54511;47.532;19.180;2024-01-15T13:31:13;1.40;;;0.65;;
67717;SDS011;54511;47.532;19.180;2024-01-15T13:33:41;0.43;;;0.40;;
67717;SDS011;54511;47.532;19.180;2024-01-15T13:36:08;1.77;;;0.70;;
67717;SDS011;54511;47.532;19.180;2024-01-15T13:38:55;0.15;;;0.15;;
67717;SDS011;54511;47.532;19.180;2024-01-15T13:41:22;0.55;;;0.40;;
67717;SDS011;54511;47.532;19.180;2024-01-15T13:43:56;2.53;;;1.12;;
67717;SDS011;54511;47.532;19.180;2024-01-15T13:46:41;2.35;;;1.25;;
67717;SDS011;54511;47.532;19.180;2024-01-15T13:49:28;0.43;;;0.13;;
67717;SDS011;54511;47.532;19.180;2024-01-15T13:52:35;1.02;;;0.65;;
67717;SDS011;54511;47.532;19.180;2024-01-15T13:55:02;0.90;;;0.90;;
67717;SDS011;54511;47.532;19.180;2024-01-15T13:57:49;2.37;;;0.98;;
67717;SDS011;54511;47.532;19.180;2024-01-15T14:00:36;0.65;;;0.62;;
67717;SDS011;54511;47.532;19.180;2024-01-15T14:03:06;0.35;;;0.28;;
67717;SDS011;54511;47.532;19.180;2024-01-15T14:05:48;0.20;;;0.20;;
67717;SDS011;54511;47.532;19.180;2024-01-15T14:08:16;3.45;;;0.68;;
67717;SDS011;54511;47.532;19.180;2024-01-15T14:11:22;1.83;;;0.50;;
67717;SDS011;54511;47.532;19.180;2024-01-15T14:13:49;3.20;;;0.40;;
67717;SDS011;54511;47.532;19.180;2024-01-15T14:16:24;0.30;;;0.30;;
67717;SDS011;54511;47.532;19.180;2024-01-15T14:19:12;1.05;;;0.95;;
67717;SDS011;54511;47.532;19.180;2024-01-15T14:21:59;5.05;;;0.85;;
67717;SDS011;54511;47.532;19.180;2024-01-15T14:24:25;0.57;;;0.57;;
67717;SDS011;54511;47.532;19.180;2024-01-15T14:26:52;1.58;;;0.73;;
67717;SDS011;54511;47.532;19.180;2024-01-15T14:29:19;0.30;;;0.30;;
67717;SDS011;54511;47.532;19.180;2024-01-15T14:31:47;1.25;;;1.00;;
67717;SDS011;54511;47.532;19.180;2024-01-15T14:34:16;0.20;;;0.20;;
67717;SDS011;54511;47.532;19.180;2024-01-15T14:37:03;0.30;;;0.30;;
67717;SDS011;54511;47.532;19.180;2024-01-15T14:39:31;0.45;;;0.37;;
67717;SDS011;54511;47.532;19.180;2024-01-15T14:41:59;0.90;;;0.70;;
67717;SDS011;54511;47.532;19.180;2024-01-15T14:44:27;0.98;;;0.45;;
67717;SDS011;54511;47.532;19.180;2024-01-15T14:46:54;1.40;;;0.93;;
67717;SDS011;54511;47.532;19.180;2024-01-15T14:49:25;2.12;;;1.65;;
67717;SDS011;54511;47.532;19.180;2024-01-15T14:51:52;0.98;;;0.77;;
67717;SDS011;54511;47.532;19.180;2024-01-15T14:54:20;0.15;;;0.15;;
67717;SDS011;54511;47.532;19.180;2024-01-15T14:56:48;0.52;;;0.52;;
67717;SDS011;54511;47.532;19.180;2024-01-15T14:59:14;1.25;;;0.90;;
67717;SDS011;54511;47.532;19.180;2024-01-15T15:01:41;0.75;;;0.30;;
67717;SDS011;54511;47.532;19.180;2024-01-15T15:04:08;0.45;;;0.43;;
67717;SDS011;54511;47.532;19.180;2024-01-15T15:06:37;3.70;;;1.20;;
67717;SDS011;54511;47.532;19.180;2024-01-15T15:09:04;1.08;;;0.98;;
67717;SDS011;54511;47.532;19.180;2024-01-15T15:11:34;1.20;;;1.02;;
67717;SDS011;54511;47.532;19.180;2024-01-15T15:14:01;1.87;;;1.40;;
67717;SDS011;54511;47.532;19.180;2024-01-15T15:16:29;0.85;;;0.40;;
67717;SDS011;54511;47.532;19.180;2024-01-15T15:18:56;0.32;;;0.32;;
67717;SDS011;54511;47.532;19.180;2024-01-15T15:21:23;2.35;;;1.30;;
67717;SDS011;54511;47.532;19.180;2024-01-15T15:23:51;0.45;;;0.45;;
67717;SDS011;54511;47.532;19.180;2024-01-15T15:26:18;1.52;;;1.40;;
67717;SDS011;54511;47.532;19.180;2024-01-15T15:28:46;0.20;;;0.20;;
67717;SDS011;54511;47.532;19.180;2024-01-15T15:31:13;7.12;;;1.95;;
67717;SDS011;54511;47.532;19.180;2024-01-15T15:33:40;0.88;;;0.88;;
67717;SDS011;54511;47.532;19.180;2024-01-15T15:36:09;2.87;;;1.30;;
67717;SDS011;54511;47.532;19.180;2024-01-15T15:38:36;4.35;;;0.85;;
67717;SDS011;54511;47.532;19.180;2024-01-15T15:41:05;3.15;;;1.05;;
67717;SDS011;54511;47.532;19.180;2024-01-15T15:43:32;4.57;;;1.48;;
67717;SDS011;54511;47.532;19.180;2024-01-15T15:45:59;0.40;;;0.10;;
67717;SDS011;54511;47.532;19.180;2024-01-15T15:48:27;2.42;;;0.98;;
67717;SDS011;54511;47.532;19.180;2024-01-15T15:50:55;1.67;;;0.82;;
67717;SDS011;54511;47.532;19.180;2024-01-15T15:53:22;1.20;;;0.68;;
67717;SDS011;54511;47.532;19.180;2024-01-15T15:55:49;0.20;;;0.20;;
67717;SDS011;54511;47.532;19.180;2024-01-15T15:58:18;1.83;;;1.40;;
67717;SDS011;54511;47.532;19.180;2024-01-15T16:00:45;1.62;;;0.75;;
67717;SDS011;54511;47.532;19.180;2024-01-15T16:03:11;1.05;;;1.05;;
67717;SDS011;54511;47.532;19.180;2024-01-15T16:05:39;0.73;;;0.40;;